createdAt,value
2022-08-26T00:00:56.997Z,9.18
2022-08-26T00:02:59.203Z,9.82
2022-08-26T00:05:00.954Z,9.43
2022-08-26T00:07:02.949Z,6.60
2022-08-26T00:09:08.133Z,9.45
2022-08-26T00:11:10.247Z,9.93
2022-08-26T00:13:13.038Z,9.82
2022-08-26T00:15:19.085Z,10.13
2022-08-26T00:17:21.771Z,8.80
2022-08-26T00:19:23.681Z,9.82
2022-08-26T00:21:25.482Z,9.75
2022-08-26T00:23:27.196Z,8.90
2022-08-26T00:25:42.460Z,10.05
2022-08-26T00:27:44.611Z,11.30
2022-08-26T00:29:46.465Z,10.38
2022-08-26T00:31:48.458Z,8.00
2022-08-26T00:33:50.985Z,9.48
2022-08-26T00:35:53.117Z,10.98
2022-08-26T00:37:55.764Z,10.73
2022-08-26T00:39:57.948Z,10.57
2022-08-26T00:42:02.503Z,10.52
2022-08-26T00:44:04.866Z,14.68
2022-08-26T00:46:31.487Z,13.57
2022-08-26T00:48:35.768Z,11.85
2022-08-26T00:50:41.920Z,9.13
2022-08-26T00:52:46.068Z,10.60
2022-08-26T00:54:55.655Z,12.80
2022-08-26T00:56:59.841Z,14.57
2022-08-26T00:59:11.962Z,11.45
2022-08-26T01:01:15.256Z,13.07
2022-08-26T01:03:19.712Z,10.70
2022-08-26T01:05:23.794Z,10.65
2022-08-26T01:07:27.372Z,11.32
2022-08-26T01:09:30.651Z,16.17
2022-08-26T01:11:33.139Z,11.98
2022-08-26T01:13:37.193Z,14.23
2022-08-26T01:15:49.337Z,13.20
2022-08-26T01:17:52.354Z,14.88
2022-08-26T01:20:03.413Z,14.45
2022-08-26T01:24:31.659Z,17.63
2022-08-26T01:26:40.517Z,15.77
2022-08-26T01:28:43.405Z,14.38
2022-08-26T01:30:52.596Z,14.02
2022-08-26T01:32:58.038Z,14.88
2022-08-26T01:35:00.936Z,11.57
2022-08-26T01:37:07.729Z,10.77
2022-08-26T01:39:10.375Z,11.63
2022-08-26T01:41:19.680Z,12.55
2022-08-26T01:43:26.043Z,11.35
2022-08-26T01:45:42.340Z,10.38
2022-08-26T01:47:46.131Z,11.43
2022-08-26T01:49:53.609Z,11.43
2022-08-26T01:51:57.774Z,9.45
2022-08-26T01:54:00.201Z,12.68
2022-08-26T01:56:03.755Z,9.75
2022-08-26T01:58:11.768Z,12.90
2022-08-26T02:00:16.221Z,10.43
2022-08-26T02:02:18.127Z,10.73
2022-08-26T02:04:26.143Z,10.57
2022-08-26T02:06:27.958Z,9.60
2022-08-26T02:08:43.860Z,10.48
2022-08-26T02:10:45.725Z,10.77
2022-08-26T02:12:47.809Z,8.57
2022-08-26T02:15:05.570Z,10.77
2022-08-26T02:17:10.081Z,12.82
2022-08-26T02:19:17.565Z,15.52
2022-08-26T02:21:19.295Z,10.88
2022-08-26T02:23:21.029Z,9.63
2022-08-26T02:25:32.815Z,10.32
2022-08-26T02:27:35.408Z,10.10
2022-08-26T02:29:43.607Z,9.40
2022-08-26T02:31:45.675Z,9.85
2022-08-26T02:33:47.457Z,9.25
2022-08-26T02:35:49.188Z,10.48
2022-08-26T02:37:52.285Z,10.88
2022-08-26T02:39:54.392Z,10.90
2022-08-26T02:41:56.331Z,8.18
2022-08-26T02:43:58.103Z,8.35
2022-08-26T02:46:01.987Z,11.70
2022-08-26T02:48:12.351Z,10.82
2022-08-26T02:50:14.685Z,14.30
2022-08-26T02:52:18.898Z,13.38
2022-08-26T02:54:21.632Z,11.02
2022-08-26T02:56:23.725Z,9.73
2022-08-26T02:58:25.486Z,11.30
2022-08-26T03:00:29.127Z,12.82
2022-08-26T03:02:30.863Z,11.68
2022-08-26T03:04:33.345Z,8.90
2022-08-26T03:06:35.766Z,9.98
2022-08-26T03:08:39.309Z,9.65
2022-08-26T03:10:41.357Z,12.68
2022-08-26T03:12:47.399Z,10.50
2022-08-26T03:14:49.785Z,11.88
2022-08-26T03:16:54.490Z,11.38
2022-08-26T03:18:56.299Z,11.82
2022-08-26T03:20:58.204Z,12.65
2022-08-26T03:23:00.427Z,10.63
2022-08-26T03:25:07.326Z,13.68
2022-08-26T03:27:09.001Z,12.05
2022-08-26T03:29:29.221Z,11.48
2022-08-26T03:31:34.782Z,9.73
2022-08-26T03:33:36.509Z,11.60
2022-08-26T03:35:41.741Z,12.82
2022-08-26T03:37:43.636Z,9.43
2022-08-26T03:39:45.962Z,10.70
2022-08-26T03:41:48.038Z,14.18
2022-08-26T03:43:50.999Z,11.15
2022-08-26T03:45:52.766Z,8.75
2022-08-26T03:47:54.663Z,9.60
2022-08-26T03:49:59.777Z,10.73
2022-08-26T03:52:02.746Z,9.75
2022-08-26T03:54:08.436Z,9.90
2022-08-26T03:56:10.804Z,16.85
2022-08-26T03:58:12.618Z,11.15
2022-08-26T04:00:18.468Z,12.25
2022-08-26T04:02:20.409Z,8.57
2022-08-26T04:04:22.841Z,11.25
2022-08-26T04:06:27.599Z,9.77
2022-08-26T04:08:29.357Z,12.00
2022-08-26T04:10:31.265Z,11.55
2022-08-26T04:12:32.992Z,9.98
2022-08-26T04:14:35.733Z,9.98
2022-08-26T04:16:39.908Z,12.48
2022-08-26T04:18:46.461Z,9.88
2022-08-26T04:20:49.333Z,11.20
2022-08-26T04:22:51.127Z,11.02
2022-08-26T04:25:04.157Z,13.35
2022-08-26T04:27:08.749Z,13.40
2022-08-26T04:29:20.850Z,10.77
2022-08-26T04:31:22.889Z,10.63
2022-08-26T04:33:32.534Z,10.73
2022-08-26T04:35:37.112Z,12.27
2022-08-26T04:37:39.393Z,12.55
2022-08-26T04:39:44.817Z,12.05
2022-08-26T04:41:50.902Z,12.10
2022-08-26T04:43:53.584Z,14.13
2022-08-26T04:45:56.637Z,17.80
2022-08-26T04:47:58.517Z,11.55
2022-08-26T04:50:00.317Z,13.40
2022-08-26T04:52:05.233Z,13.48
2022-08-26T04:54:07.529Z,14.27
2022-08-26T04:56:09.218Z,13.13
2022-08-26T04:58:15.249Z,10.75
2022-08-26T05:00:17.390Z,11.73
2022-08-26T05:02:19.427Z,18.70
2022-08-26T05:04:21.392Z,15.88
2022-08-26T05:06:24.348Z,14.05
2022-08-26T05:08:26.336Z,15.35
2022-08-26T05:10:29.224Z,11.65
2022-08-26T05:12:31.530Z,11.70
2022-08-26T05:14:33.648Z,14.45
2022-08-26T05:16:35.783Z,15.57
2022-08-26T05:18:41.272Z,12.65
2022-08-26T05:20:47.839Z,12.60
2022-08-26T05:22:49.545Z,11.82
2022-08-26T05:25:04.217Z,13.95
2022-08-26T05:27:11.513Z,16.42
2022-08-26T05:29:14.163Z,13.52
2022-08-26T05:31:19.549Z,14.82
2022-08-26T05:33:22.088Z,14.75
2022-08-26T05:35:23.820Z,14.35
2022-08-26T05:37:25.543Z,14.07
2022-08-26T05:39:27.298Z,14.05
2022-08-26T05:41:34.579Z,14.20
2022-08-26T05:43:38.522Z,12.52
2022-08-26T05:45:50.270Z,12.60
2022-08-26T05:47:52.029Z,12.00
2022-08-26T05:49:53.696Z,13.13
2022-08-26T05:51:55.393Z,14.15
2022-08-26T05:53:57.157Z,12.13
2022-08-26T05:56:00.101Z,14.73
2022-08-26T05:58:02.753Z,11.82
2022-08-26T06:00:05.269Z,13.93
2022-08-26T06:02:08.163Z,13.35
2022-08-26T06:04:11.441Z,11.52
2022-08-26T06:06:21.554Z,11.30
2022-08-26T06:08:29.638Z,13.90
2022-08-26T06:10:33.119Z,14.50
2022-08-26T06:12:35.007Z,14.52
2022-08-26T06:14:37.173Z,17.65
2022-08-26T06:16:41.363Z,16.95
2022-08-26T06:18:47.335Z,14.80
2022-08-26T06:20:57.904Z,11.25
2022-08-26T06:23:18.328Z,12.43
2022-08-26T06:25:38.344Z,11.57
2022-08-26T06:27:40.107Z,11.27
2022-08-26T06:29:41.989Z,14.05
2022-08-26T06:31:43.825Z,11.35
2022-08-26T06:33:45.655Z,10.60
2022-08-26T06:35:48.281Z,13.00
2022-08-26T06:37:49.991Z,14.02
2022-08-26T06:39:51.787Z,14.02
2022-08-26T06:41:53.554Z,13.07
2022-08-26T06:43:56.912Z,11.48
2022-08-26T06:46:08.455Z,10.88
2022-08-26T06:48:11.035Z,12.05
2022-08-26T06:50:14.199Z,13.13
2022-08-26T06:52:21.183Z,13.95
2022-08-26T06:54:31.802Z,12.30
2022-08-26T06:56:37.571Z,14.55
2022-08-26T06:58:40.827Z,11.48
2022-08-26T07:00:47.383Z,10.25
2022-08-26T07:02:49.546Z,11.35
2022-08-26T07:05:02.621Z,13.52
2022-08-26T07:07:04.399Z,15.25
2022-08-26T07:09:09.976Z,15.63
2022-08-26T07:11:12.395Z,13.70
2022-08-26T07:13:14.225Z,16.73
2022-08-26T07:15:16.307Z,11.15
2022-08-26T07:17:18.319Z,12.25
2022-08-26T07:19:30.505Z,11.68
2022-08-26T07:21:33.580Z,10.35
2022-08-26T07:23:36.427Z,10.65
2022-08-26T07:25:40.641Z,9.85
2022-08-26T07:27:43.623Z,10.77
2022-08-26T07:29:45.571Z,9.35
2022-08-26T07:31:47.370Z,11.90
2022-08-26T07:33:50.431Z,14.77
2022-08-26T07:35:52.572Z,11.93
2022-08-26T07:37:57.050Z,8.40
2022-08-26T07:40:00.306Z,6.65
2022-08-26T07:42:07.559Z,8.35
2022-08-26T07:44:10.261Z,10.75
2022-08-26T07:46:18.517Z,8.73
2022-08-26T07:48:23.741Z,12.07
2022-08-26T07:50:49.001Z,9.95
2022-08-26T07:52:48.710Z,7.78
2022-08-26T07:54:59.176Z,11.00
2022-08-26T07:57:01.635Z,12.52
2022-08-26T07:59:13.639Z,6.93
2022-08-26T08:01:16.156Z,10.25
2022-08-26T08:03:17.879Z,11.73
2022-08-26T08:05:22.327Z,9.95
2022-08-26T08:07:45.062Z,9.20
2022-08-26T08:09:51.372Z,8.65
2022-08-26T08:11:53.652Z,9.93
2022-08-26T08:13:56.908Z,8.70
2022-08-26T08:15:58.694Z,7.85
2022-08-26T08:18:01.236Z,11.68
2022-08-26T08:20:04.503Z,12.95
2022-08-26T08:22:17.050Z,8.07
2022-08-26T08:24:19.405Z,9.05
2022-08-26T08:26:22.062Z,11.80
2022-08-26T08:28:23.816Z,12.38
2022-08-26T08:30:25.998Z,9.25
2022-08-26T08:32:29.750Z,11.23
2022-08-26T08:34:31.670Z,14.35
2022-08-26T08:36:36.131Z,14.45
2022-08-26T08:38:38.690Z,9.85
2022-08-26T08:40:42.389Z,9.75
2022-08-26T08:42:50.137Z,9.60
2022-08-26T08:45:04.027Z,10.80
2022-08-26T08:47:17.714Z,10.85
2022-08-26T08:49:20.235Z,14.95
2022-08-26T08:51:34.081Z,18.65
2022-08-26T08:53:43.082Z,10.07
2022-08-26T08:56:15.152Z,7.53
2022-08-26T08:58:21.473Z,12.73
2022-08-26T09:00:30.343Z,10.20
2022-08-26T09:02:47.898Z,10.98
2022-08-26T09:05:21.682Z,10.55
2022-08-26T09:07:36.718Z,13.32
2022-08-26T09:10:08.635Z,10.88
2022-08-26T09:12:20.507Z,18.65
2022-08-26T09:16:51.715Z,10.38
2022-08-26T09:18:56.328Z,11.45
2022-08-26T09:21:05.822Z,12.40
2022-08-26T09:23:10.384Z,9.85
2022-08-26T09:25:14.413Z,14.43
2022-08-26T09:27:40.708Z,11.63
2022-08-26T09:29:45.522Z,10.27
2022-08-26T09:32:13.060Z,13.30
2022-08-26T09:34:17.360Z,11.18
2022-08-26T09:36:39.167Z,14.60
2022-08-26T09:38:42.218Z,7.63
2022-08-26T09:41:00.962Z,12.30
2022-08-26T09:43:22.919Z,6.07
2022-08-26T09:45:29.067Z,8.18
2022-08-26T09:47:39.129Z,12.55
2022-08-26T09:49:42.263Z,9.70
2022-08-26T09:51:44.357Z,12.27
2022-08-26T09:53:57.801Z,13.07
2022-08-26T09:56:23.864Z,8.95
2022-08-26T09:58:38.103Z,9.27
2022-08-26T10:00:43.269Z,7.90
2022-08-26T10:02:47.570Z,7.78
2022-08-26T10:05:09.668Z,9.30
2022-08-26T10:07:31.940Z,6.85
2022-08-26T10:09:39.279Z,5.97
2022-08-26T10:11:50.216Z,7.90
2022-08-26T10:13:56.917Z,10.80
2022-08-26T10:16:17.725Z,10.05
2022-08-26T10:18:25.182Z,11.48
2022-08-26T10:20:35.240Z,6.72
2022-08-26T10:22:43.017Z,8.20
2022-08-26T10:24:51.959Z,7.07
2022-08-26T10:27:35.001Z,8.05
2022-08-26T10:29:44.203Z,6.22
2022-08-26T10:31:55.311Z,10.45
2022-08-26T10:34:04.404Z,4.78
2022-08-26T10:36:39.263Z,8.07
2022-08-26T10:38:48.994Z,4.85
2022-08-26T10:41:13.903Z,9.00
2022-08-26T10:43:25.587Z,8.80
2022-08-26T10:45:30.335Z,6.70
2022-08-26T10:47:43.471Z,8.48
2022-08-26T10:49:49.273Z,8.38
2022-08-26T10:52:18.458Z,6.47
2022-08-26T10:54:35.209Z,10.32
2022-08-26T10:56:58.660Z,8.80
2022-08-26T10:59:44.549Z,9.45
2022-08-26T11:01:57.776Z,5.10
2022-08-26T11:04:17.334Z,16.35
2022-08-26T11:06:18.990Z,8.30
2022-08-26T11:08:20.790Z,8.98
2022-08-26T11:10:25.051Z,4.72
2022-08-26T11:12:36.161Z,5.72
2022-08-26T11:14:58.427Z,6.32
2022-08-26T11:17:01.532Z,4.60
2022-08-26T11:19:04.101Z,6.65
2022-08-26T11:21:44.502Z,5.72
2022-08-26T11:23:50.745Z,5.35
2022-08-26T11:26:09.884Z,9.60
2022-08-26T11:28:36.338Z,10.52
2022-08-26T11:30:43.584Z,6.15
2022-08-26T11:32:55.240Z,5.68
2022-08-26T11:35:07.396Z,7.55
2022-08-26T11:37:15.783Z,4.60
2022-08-26T11:39:20.424Z,9.77
2022-08-26T11:41:27.484Z,7.07
2022-08-26T11:43:30.493Z,8.90
2022-08-26T11:45:41.723Z,6.95
2022-08-26T11:47:44.795Z,6.28
2022-08-26T11:49:46.539Z,7.50
2022-08-26T11:51:48.732Z,6.60
2022-08-26T11:53:51.354Z,5.90
2022-08-26T11:55:55.878Z,4.22
2022-08-26T11:58:00.981Z,4.93
2022-08-26T12:00:04.105Z,5.18
2022-08-26T12:02:14.338Z,8.63
2022-08-26T12:04:38.241Z,4.20
2022-08-26T12:06:47.883Z,5.20
2022-08-26T12:08:51.725Z,3.15
2022-08-26T12:11:21.386Z,6.30
2022-08-26T12:13:26.511Z,6.88
2022-08-26T12:15:30.933Z,10.45
2022-08-26T12:17:33.649Z,7.40
2022-08-26T12:19:35.483Z,5.68
2022-08-26T12:21:37.729Z,6.75
2022-08-26T12:23:44.220Z,8.50
2022-08-26T12:25:46.649Z,4.38
2022-08-26T12:27:53.761Z,5.90
2022-08-26T12:30:17.960Z,7.55
2022-08-26T12:32:25.046Z,4.00
2022-08-26T12:34:28.336Z,5.35
2022-08-26T12:36:37.416Z,5.70
2022-08-26T12:38:40.586Z,4.80
2022-08-26T12:40:45.328Z,6.60
2022-08-26T12:42:47.634Z,5.28
2022-08-26T12:44:56.589Z,5.88
2022-08-26T12:47:03.895Z,5.22
2022-08-26T12:49:05.791Z,2.88
2022-08-26T12:51:14.669Z,13.07
2022-08-26T12:53:25.629Z,6.03
2022-08-26T12:55:33.202Z,4.75
2022-08-26T12:57:37.596Z,4.53
2022-08-26T12:59:39.467Z,8.65
2022-08-26T13:01:43.783Z,5.13
2022-08-26T13:03:46.626Z,4.10
2022-08-26T13:05:48.377Z,7.03
2022-08-26T13:08:10.557Z,3.53
2022-08-26T13:10:36.506Z,5.32
2022-08-26T13:12:38.391Z,2.40
2022-08-26T13:14:40.589Z,4.82
2022-08-26T13:16:42.609Z,4.25
2022-08-26T13:18:44.330Z,5.13
2022-08-26T13:20:46.314Z,2.40
2022-08-26T13:22:51.708Z,4.88
2022-08-26T13:25:04.239Z,3.40
2022-08-26T13:27:08.372Z,3.80
2022-08-26T13:29:10.666Z,6.07
2022-08-26T13:31:14.408Z,7.32
2022-08-26T13:33:18.632Z,8.38
2022-08-26T13:35:21.427Z,6.18
2022-08-26T13:37:24.401Z,4.75
2022-08-26T13:39:36.890Z,4.55
2022-08-26T13:41:38.903Z,4.45
2022-08-26T13:43:40.594Z,4.28
2022-08-26T13:45:42.744Z,8.52
2022-08-26T13:47:44.716Z,5.20
2022-08-26T13:49:46.994Z,3.55
2022-08-26T13:51:48.785Z,4.40
2022-08-26T13:53:51.532Z,3.75
2022-08-26T13:55:53.348Z,3.88
2022-08-26T13:57:56.750Z,6.18
2022-08-26T13:59:59.588Z,2.38
2022-08-26T14:02:02.971Z,4.20
2022-08-26T14:04:04.664Z,6.47
2022-08-26T14:06:06.364Z,5.82
2022-08-26T14:08:08.506Z,7.38
2022-08-26T14:10:10.772Z,4.18
2022-08-26T14:12:12.586Z,5.47
2022-08-26T14:14:14.267Z,6.75
2022-08-26T14:16:25.126Z,4.35
2022-08-26T14:18:35.449Z,4.70
2022-08-26T14:20:39.749Z,4.75
2022-08-26T14:23:03.650Z,4.95
2022-08-26T14:25:06.162Z,2.88
2022-08-26T14:27:07.905Z,3.58
2022-08-26T14:29:12.381Z,2.95
2022-08-26T14:31:17.331Z,3.03
2022-08-26T14:33:23.575Z,3.13
2022-08-26T14:35:28.403Z,7.40
2022-08-26T14:37:30.098Z,3.65
2022-08-26T14:39:31.944Z,3.30
2022-08-26T14:41:37.219Z,5.00
2022-08-26T14:43:48.366Z,2.75
2022-08-26T14:45:50.049Z,3.38
2022-08-26T14:47:53.651Z,4.00
2022-08-26T14:49:55.404Z,3.25
2022-08-26T14:51:57.181Z,4.10
2022-08-26T14:54:14.044Z,14.68
2022-08-26T14:56:16.840Z,3.13
2022-08-26T14:58:18.572Z,1.92
2022-08-26T15:00:20.817Z,5.32
2022-08-26T15:02:32.578Z,3.40
2022-08-26T15:04:35.576Z,3.40
2022-08-26T15:06:38.224Z,5.00
2022-08-26T15:08:40.209Z,8.60
2022-08-26T15:10:41.880Z,2.45
2022-08-26T15:12:44.155Z,5.88
2022-08-26T15:14:45.974Z,4.28
2022-08-26T15:16:49.544Z,5.30
2022-08-26T15:18:51.777Z,3.53
2022-08-26T15:20:53.487Z,2.20
2022-08-26T15:22:55.413Z,2.80
2022-08-26T15:25:05.526Z,4.15
2022-08-26T15:27:07.380Z,4.13
2022-08-26T15:29:09.164Z,2.83
2022-08-26T15:31:10.948Z,4.60
2022-08-26T15:33:15.370Z,5.70
2022-08-26T15:35:17.348Z,3.40
2022-08-26T15:37:19.096Z,5.18
2022-08-26T15:39:21.036Z,4.22
2022-08-26T15:41:24.463Z,3.72
2022-08-26T15:43:29.154Z,4.43
2022-08-26T15:45:33.318Z,4.53
2022-08-26T15:47:35.468Z,4.90
2022-08-26T15:49:48.515Z,1.98
2022-08-26T15:51:53.173Z,5.40
2022-08-26T15:53:56.476Z,4.03
2022-08-26T15:55:59.102Z,4.80
2022-08-26T15:58:01.341Z,5.05
2022-08-26T16:00:04.838Z,3.03
2022-08-26T16:02:07.418Z,3.03
2022-08-26T16:04:09.712Z,3.08
2022-08-26T16:06:14.567Z,5.20
2022-08-26T16:08:16.427Z,8.27
2022-08-26T16:10:18.652Z,3.38
2022-08-26T16:12:21.077Z,2.75
2022-08-26T16:14:23.185Z,3.20
2022-08-26T16:16:24.919Z,2.95
2022-08-26T16:18:27.802Z,3.25
2022-08-26T16:20:32.490Z,3.55
2022-08-26T16:22:34.203Z,3.55
2022-08-26T16:24:36.719Z,3.58
2022-08-26T16:26:40.098Z,4.63
2022-08-26T16:28:42.137Z,3.20
2022-08-26T16:30:45.630Z,3.30
2022-08-26T16:32:48.457Z,2.67
2022-08-26T16:34:56.187Z,2.75
2022-08-26T16:36:58.623Z,3.88
2022-08-26T16:39:00.632Z,3.38
2022-08-26T16:41:02.433Z,1.70
2022-08-26T16:43:04.238Z,3.15
2022-08-26T16:45:06.683Z,3.58
2022-08-26T16:47:08.334Z,3.10
2022-08-26T16:49:10.046Z,5.78
2022-08-26T16:51:18.668Z,2.28
2022-08-26T16:53:20.350Z,5.75
2022-08-26T16:55:22.689Z,2.92
2022-08-26T16:57:24.405Z,5.60
2022-08-26T16:59:26.287Z,5.28
2022-08-26T17:01:28.061Z,5.53
2022-08-26T17:03:29.763Z,3.65
2022-08-26T17:05:31.467Z,9.13
2022-08-26T17:07:35.510Z,5.15
2022-08-26T17:09:37.557Z,3.70
2022-08-26T17:11:43.919Z,2.78
2022-08-26T17:13:45.552Z,4.18
2022-08-26T17:15:54.156Z,4.00
2022-08-26T17:18:00.102Z,2.85
2022-08-26T17:20:08.007Z,5.32
2022-08-26T17:22:09.692Z,3.05
2022-08-26T17:24:11.531Z,3.38
2022-08-26T17:26:13.208Z,4.10
2022-08-26T17:28:15.315Z,4.72
2022-08-26T17:30:17.806Z,6.40
2022-08-26T17:32:19.515Z,4.38
2022-08-26T17:34:21.982Z,2.85
2022-08-26T17:36:27.474Z,4.15
2022-08-26T17:38:30.016Z,4.97
2022-08-26T17:40:31.896Z,5.00
2022-08-26T17:42:33.638Z,4.13
2022-08-26T17:44:35.477Z,2.38
2022-08-26T17:46:38.499Z,7.25
2022-08-26T17:48:41.455Z,3.78
2022-08-26T17:50:46.295Z,4.03
2022-08-26T17:52:51.776Z,4.47
2022-08-26T17:54:59.278Z,3.50
2022-08-26T17:57:00.984Z,6.00
2022-08-26T17:59:04.055Z,4.43
2022-08-26T18:01:06.392Z,4.97
2022-08-26T18:03:08.503Z,6.30
2022-08-26T18:05:13.128Z,3.53
2022-08-26T18:07:16.255Z,3.60
2022-08-26T18:09:18.234Z,5.05
2022-08-26T18:11:23.190Z,7.28
2022-08-26T18:13:25.350Z,3.92
2022-08-26T18:15:27.939Z,5.50
2022-08-26T18:17:30.047Z,5.38
2022-08-26T18:19:32.046Z,6.18
2022-08-26T18:21:36.465Z,4.40
2022-08-26T18:23:38.424Z,2.72
2022-08-26T18:25:44.318Z,7.32
2022-08-26T18:27:46.358Z,4.47
2022-08-26T18:29:48.774Z,6.90
2022-08-26T18:31:50.649Z,10.25
2022-08-26T18:33:53.144Z,3.80
2022-08-26T18:35:55.024Z,4.75
2022-08-26T18:37:58.518Z,6.50
2022-08-26T18:40:13.124Z,3.85
2022-08-26T18:42:15.276Z,4.03
2022-08-26T18:44:19.438Z,6.18
2022-08-26T18:46:25.305Z,10.18
2022-08-26T18:48:28.655Z,5.90
2022-08-26T18:50:31.291Z,3.90
2022-08-26T18:52:33.284Z,4.95
2022-08-26T18:54:36.512Z,5.63
2022-08-26T18:56:40.201Z,4.60
2022-08-26T18:58:42.121Z,6.75
2022-08-26T19:00:44.020Z,4.18
2022-08-26T19:02:47.047Z,9.80
2022-08-26T19:05:04.438Z,7.55
2022-08-26T19:07:07.509Z,7.18
2022-08-26T19:09:11.864Z,5.43
2022-08-26T19:11:17.721Z,3.53
2022-08-26T19:13:33.692Z,4.78
2022-08-26T19:15:42.756Z,8.38
2022-08-26T19:17:44.646Z,10.13
2022-08-26T19:19:47.127Z,6.40
2022-08-26T19:21:49.012Z,7.55
2022-08-26T19:23:52.230Z,14.65
2022-08-26T19:25:54.145Z,5.15
2022-08-26T19:27:56.142Z,7.30
2022-08-26T19:29:58.484Z,7.40
2022-08-26T19:32:02.089Z,5.00
2022-08-26T19:34:05.452Z,4.22
2022-08-26T19:36:11.429Z,3.97
2022-08-26T19:38:16.406Z,10.68
2022-08-26T19:40:18.375Z,8.50
2022-08-26T19:42:22.543Z,6.60
2022-08-26T19:44:42.997Z,5.03
2022-08-26T19:46:45.546Z,5.47
2022-08-26T19:48:49.945Z,4.60
2022-08-26T19:50:54.885Z,9.73
2022-08-26T19:52:57.123Z,5.03
2022-08-26T19:55:06.814Z,8.75
2022-08-26T19:57:08.857Z,6.00
2022-08-26T19:59:10.864Z,6.35
2022-08-26T20:01:14.437Z,6.53
2022-08-26T20:03:16.498Z,8.13
2022-08-26T20:05:21.164Z,5.75
2022-08-26T20:07:23.240Z,8.57
2022-08-26T20:09:25.763Z,8.63
2022-08-26T20:11:27.548Z,7.72
2022-08-26T20:13:29.318Z,6.47
2022-08-26T20:15:31.010Z,5.85
2022-08-26T20:17:33.078Z,7.53
2022-08-26T20:19:53.848Z,10.13
2022-08-26T20:24:00.708Z,9.52
2022-08-26T20:26:03.213Z,6.22
2022-08-26T20:28:05.287Z,13.68
2022-08-26T20:30:09.752Z,9.80
2022-08-26T20:32:12.253Z,9.60
2022-08-26T20:34:18.351Z,8.35
2022-08-26T20:36:22.120Z,10.88
2022-08-26T20:38:26.370Z,7.22
2022-08-26T20:40:29.281Z,6.55
2022-08-26T20:42:31.203Z,6.60
2022-08-26T20:44:33.518Z,9.70
2022-08-26T20:46:35.955Z,10.75
2022-08-26T20:48:38.391Z,6.57
2022-08-26T20:50:40.802Z,12.55
2022-08-26T20:52:42.818Z,8.68
2022-08-26T20:54:44.844Z,12.45
2022-08-26T20:56:47.422Z,11.90
2022-08-26T20:58:50.113Z,9.95
2022-08-26T21:00:52.476Z,8.32
2022-08-26T21:02:54.596Z,8.98
2022-08-26T21:05:05.058Z,7.57
2022-08-26T21:07:07.166Z,11.32
2022-08-26T21:09:11.151Z,13.93
2022-08-26T21:11:13.558Z,11.15
2022-08-26T21:13:15.441Z,12.07
2022-08-26T21:15:17.487Z,10.10
2022-08-26T21:17:19.539Z,10.13
2022-08-26T21:19:22.020Z,11.13
2022-08-26T21:21:27.535Z,7.63
2022-08-26T21:23:29.900Z,15.95
2022-08-26T21:25:31.811Z,6.45
2022-08-26T21:27:35.963Z,11.85
2022-08-26T21:29:37.910Z,8.50
2022-08-26T21:31:45.496Z,7.40
2022-08-26T21:33:48.285Z,8.75
2022-08-26T21:35:54.611Z,7.57
2022-08-26T21:37:56.351Z,8.70
2022-08-26T21:39:59.697Z,8.07
2022-08-26T21:42:01.474Z,9.02
2022-08-26T21:44:03.612Z,9.23
2022-08-26T21:46:11.755Z,11.27
2022-08-26T21:48:13.409Z,9.40
2022-08-26T21:50:15.168Z,10.35
2022-08-26T21:52:17.990Z,7.70
2022-08-26T21:54:19.816Z,7.03
2022-08-26T21:56:23.328Z,6.68
2022-08-26T21:58:25.031Z,5.72
2022-08-26T22:00:26.742Z,8.65
2022-08-26T22:02:28.549Z,9.10
2022-08-26T22:04:30.282Z,9.20
2022-08-26T22:06:34.546Z,10.93
2022-08-26T22:08:36.707Z,7.18
2022-08-26T22:10:41.595Z,13.98
2022-08-26T22:12:43.328Z,8.35
2022-08-26T22:14:45.700Z,7.55
2022-08-26T22:16:50.500Z,10.80
2022-08-26T22:18:54.828Z,8.80
2022-08-26T22:21:00.932Z,8.82
2022-08-26T22:23:03.109Z,10.85
2022-08-26T22:25:06.485Z,8.43
2022-08-26T22:27:09.089Z,9.13
2022-08-26T22:29:11.167Z,9.27
2022-08-26T22:31:14.330Z,9.32
2022-08-26T22:33:17.395Z,7.35
2022-08-26T22:35:28.457Z,8.50
2022-08-26T22:37:31.346Z,7.10
2022-08-26T22:39:33.365Z,8.48
2022-08-26T22:41:35.490Z,10.15
2022-08-26T22:43:38.479Z,10.70
2022-08-26T22:45:43.269Z,11.18
2022-08-26T22:47:45.045Z,6.68
2022-08-26T22:49:46.807Z,12.75
2022-08-26T22:51:48.824Z,7.28
2022-08-26T22:53:50.626Z,7.75
2022-08-26T22:55:52.330Z,6.68
2022-08-26T22:57:54.098Z,7.63
2022-08-26T22:59:56.002Z,9.45
2022-08-26T23:01:57.991Z,7.63
2022-08-26T23:03:59.874Z,8.85
2022-08-26T23:06:04.755Z,10.63
2022-08-26T23:08:07.885Z,8.45
2022-08-26T23:10:10.181Z,10.77
2022-08-26T23:12:12.424Z,10.00
2022-08-26T23:14:14.603Z,9.98
2022-08-26T23:16:16.430Z,8.07
2022-08-26T23:18:18.094Z,8.63
2022-08-26T23:20:19.994Z,8.43
2022-08-26T23:22:21.655Z,7.47
2022-08-26T23:24:51.198Z,11.00
2022-08-26T23:26:52.889Z,8.43
2022-08-26T23:28:55.527Z,7.70
2022-08-26T23:30:57.673Z,14.18
2022-08-26T23:32:59.605Z,10.00
2022-08-26T23:35:06.516Z,9.98
2022-08-26T23:37:09.380Z,9.10
2022-08-26T23:39:11.484Z,8.77
2022-08-26T23:41:13.644Z,9.45
2022-08-26T23:43:18.969Z,9.48
2022-08-26T23:45:22.315Z,9.77
2022-08-26T23:47:25.055Z,10.00
2022-08-26T23:49:27.843Z,8.50
2022-08-26T23:51:48.714Z,9.35
2022-08-26T23:53:51.333Z,10.93
2022-08-26T23:55:53.346Z,10.32
2022-08-26T23:57:55.292Z,8.77
2022-08-26T23:59:58.022Z,11.38
